SLSA4: ILLINOIS RIVER AT HIGHWAY 16 BRIDGE NR SILOAM SPRINGS 4SE

                                SHEF ID:       SLSA4     Illinois River at Hwy. 16 near S
STATION TYPE:

PRECIP STAGE RIV-FLOW BAT-LOAD
in ft cfs volt
Ccp-Rev Ccp-Rev Ccp-Rev Ccp-Rev
(America/Chicago)
07/15 00:00 0.00 7.01 668 12.77
07/15 01:00 0.00 7.05 690 12.71
07/15 02:00 0.00 7.17 757 12.71
07/15 03:00 0.00 7.29 829 12.71
07/15 04:00 0.00 7.35 867 12.65
07/15 05:00 0.00 7.35 867 12.65
07/15 06:00 0.00 7.32 848 12.65
07/15 07:00 0.00 7.27 817 12.65
07/15 08:00 0.00 7.23 793 12.65
07/15 09:00 0.00 7.19 769 12.77
07/15 10:00 0.00 7.15 746 13.24
07/15 11:00 0.00 7.13 734 13.48
07/15 12:00 0.00 7.12 729 13.53
07/15 13:00 0.00 7.10 717 13.71
07/15 14:00 0.03 7.08 706 14.00
07/15 15:00 0.01 7.06 695 13.71
07/15 16:00 0.00 7.05 690 13.48
07/15 17:00 0.00 7.03 679 13.36
07/15 18:00 0.00 7.02 673 13.12
07/15 19:00 0.00 7.00 663 13.00
07/15 20:00 0.00 7.00 663 12.89
07/15 21:00 0.00 6.98 652 12.83
07/15 22:00 0.00 6.97 647 12.77
07/15 23:00 0.00 6.96 641 12.77
Data processed at Wed 16Jul2025 04:14 GMT

Parsing this webpage?

Checkout our new Data API! CWMSDataAPI (CDA)

Timeseries IDs (TSIDs)

TSIDs used from left to right in the data table
SILS.Precip-Inc.Total.1Hour.1Hour.Ccp-Rev
SILS.Stage.Inst.1Hour.0.Ccp-Rev
SILS.Flow.Inst.1Hour.0.Ccp-Rev
SILS.Volt-Battery Load.Inst.1Hour.0.Ccp-Rev

                            

All information presented herein is the property of the government of the United States of America and may be revised or deleted at any time without prior notice. Dissemination of this information without the expressed written consent of the Public Affairs Office, Tulsa District U.S. Army Corps of Engineers is strictly prohibited. These data are gathered electronically and, as presented, have NOT undergone any form of quality control. These data are NOT guaranteed to be valid or correct.